sensor_id;sensor_type;location;lat;lon;timestamp;pressure;altitude;pressure_sealevel;temperature;humidity
6500;BME280;3283;52.330;9.772;2024-01-30T00:01:00;101287.34;;;3.98;100.00
6500;BME280;3283;52.330;9.772;2024-01-30T00:03:25;101290.72;;;3.94;100.00
6500;BME280;3283;52.330;9.772;2024-01-30T00:05:51;101293.22;;;3.90;100.00
6500;BME280;3283;52.330;9.772;2024-01-30T00:08:16;101289.94;;;3.98;100.00
6500;BME280;3283;52.330;9.772;2024-01-30T00:10:41;101287.22;;;3.94;100.00
6500;BME280;3283;52.330;9.772;2024-01-30T00:13:07;101286.06;;;3.81;100.00
6500;BME280;3283;52.330;9.772;2024-01-30T00:15:32;101287.53;;;3.71;100.00
6500;BME280;3283;52.330;9.772;2024-01-30T00:17:58;101291.00;;;3.72;100.00
6500;BME280;3283;52.330;9.772;2024-01-30T00:20:23;101281.31;;;3.66;100.00
6500;BME280;3283;52.330;9.772;2024-01-30T00:22:48;101289.22;;;3.69;100.00
6500;BME280;3283;52.330;9.772;2024-01-30T00:25:14;101281.66;;;3.80;100.00
6500;BME280;3283;52.330;9.772;2024-01-30T00:27:39;101283.00;;;3.97;100.00
6500;BME280;3283;52.330;9.772;2024-01-30T00:30:05;101279.59;;;4.01;100.00
6500;BME280;3283;52.330;9.772;2024-01-30T00:32:31;101278.69;;;3.99;100.00
6500;BME280;3283;52.330;9.772;2024-01-30T00:34:57;101277.84;;;4.00;100.00
6500;BME280;3283;52.330;9.772;2024-01-30T00:37:23;101274.19;;;3.94;100.00
6500;BME280;3283;52.330;9.772;2024-01-30T00:39:48;101268.25;;;3.98;100.00
6500;BME280;3283;52.330;9.772;2024-01-30T00:42:14;101271.69;;;3.97;100.00
6500;BME280;3283;52.330;9.772;2024-01-30T00:44:39;101271.59;;;3.94;100.00
6500;BME280;3283;52.330;9.772;2024-01-30T00:47:05;101273.38;;;3.95;100.00
6500;BME280;3283;52.330;9.772;2024-01-30T00:49:31;101270.63;;;3.89;100.00
6500;BME280;3283;52.330;9.772;2024-01-30T00:51:56;101273.91;;;3.81;100.00
6500;BME280;3283;52.330;9.772;2024-01-30T00:54:21;101273.09;;;3.84;100.00
6500;BME280;3283;52.330;9.772;2024-01-30T00:56:47;101277.31;;;3.79;100.00
6500;BME280;3283;52.330;9.772;2024-01-30T00:59:12;101274.81;;;3.82;100.00
6500;BME280;3283;52.330;9.772;2024-01-30T01:01:37;101272.34;;;3.88;100.00
6500;BME280;3283;52.330;9.772;2024-01-30T01:04:03;101279.25;;;3.88;100.00
6500;BME280;3283;52.330;9.772;2024-01-30T01:06:28;101280.19;;;3.90;100.00
6500;BME280;3283;52.330;9.772;2024-01-30T01:08:54;101285.25;;;3.83;100.00
6500;BME280;3283;52.330;9.772;2024-01-30T01:11:19;101281.47;;;3.72;100.00
6500;BME280;3283;52.330;9.772;2024-01-30T01:13:44;101289.59;;;3.84;100.00
6500;BME280;3283;52.330;9.772;2024-01-30T01:16:10;101294.69;;;3.80;100.00
6500;BME280;3283;52.330;9.772;2024-01-30T01:18:35;101292.16;;;3.81;100.00
6500;BME280;3283;52.330;9.772;2024-01-30T01:21:00;101293.94;;;3.84;100.00
6500;BME280;3283;52.330;9.772;2024-01-30T01:23:26;101287.28;;;3.95;100.00
6500;BME280;3283;52.330;9.772;2024-01-30T01:25:51;101292.72;;;4.04;100.00
6500;BME280;3283;52.330;9.772;2024-01-30T01:28:17;101291.81;;;4.02;100.00
6500;BME280;3283;52.330;9.772;2024-01-30T01:30:42;101286.41;;;3.95;100.00
6500;BME280;3283;52.330;9.772;2024-01-30T01:33:07;101293.31;;;3.94;100.00
6500;BME280;3283;52.330;9.772;2024-01-30T01:35:34;101289.00;;;3.95;100.00
6500;BME280;3283;52.330;9.772;2024-01-30T01:38:00;101277.69;;;3.94;100.00
6500;BME280;3283;52.330;9.772;2024-01-30T01:40:27;101277.81;;;3.99;100.00
6500;BME280;3283;52.330;9.772;2024-01-30T01:42:54;101280.34;;;3.96;100.00
6500;BME280;3283;52.330;9.772;2024-01-30T01:45:20;101277.81;;;3.99;100.00
6500;BME280;3283;52.330;9.772;2024-01-30T01:47:49;101275.22;;;3.99;100.00
6500;BME280;3283;52.330;9.772;2024-01-30T01:50:16;101272.47;;;3.94;100.00
6500;BME280;3283;52.330;9.772;2024-01-30T01:52:47;101267.34;;;3.96;100.00
6500;BME280;3283;52.330;9.772;2024-01-30T01:55:13;101272.75;;;3.70;100.00
6500;BME280;3283;52.330;9.772;2024-01-30T01:57:39;101275.19;;;3.64;100.00
6500;BME280;3283;52.330;9.772;2024-01-30T02:00:05;101265.84;;;3.72;100.00
6500;BME280;3283;52.330;9.772;2024-01-30T02:02:35;101271.31;;;3.81;100.00
6500;BME280;3283;52.330;9.772;2024-01-30T02:05:01;101268.56;;;3.75;100.00
6500;BME280;3283;52.330;9.772;2024-01-30T02:07:27;101264.25;;;3.77;100.00
6500;BME280;3283;52.330;9.772;2024-01-30T02:09:53;101257.31;;;3.76;100.00
6500;BME280;3283;52.330;9.772;2024-01-30T02:12:18;101259.22;;;3.83;100.00
6500;BME280;3283;52.330;9.772;2024-01-30T02:14:45;101256.03;;;3.95;100.00
6500;BME280;3283;52.330;9.772;2024-01-30T02:17:11;101248.84;;;3.86;100.00
6500;BME280;3283;52.330;9.772;2024-01-30T02:19:37;101250.84;;;3.97;100.00
6500;BME280;3283;52.330;9.772;2024-01-30T02:22:03;101246.38;;;3.91;100.00
6500;BME280;3283;52.330;9.772;2024-01-30T02:24:28;101252.47;;;3.92;100.00
6500;BME280;3283;52.330;9.772;2024-01-30T02:26:53;101242.94;;;3.92;100.00
6500;BME280;3283;52.330;9.772;2024-01-30T02:29:19;101247.91;;;3.83;100.00
6500;BME280;3283;52.330;9.772;2024-01-30T02:31:44;101241.38;;;4.00;100.00
6500;BME280;3283;52.330;9.772;2024-01-30T02:34:11;101245.13;;;4.11;100.00
6500;BME280;3283;52.330;9.772;2024-01-30T02:36:36;101240.97;;;4.20;100.00
6500;BME280;3283;52.330;9.772;2024-01-30T02:39:02;101241.00;;;4.21;100.00
6500;BME280;3283;52.330;9.772;2024-01-30T02:41:27;101237.31;;;4.11;100.00
6500;BME280;3283;52.330;9.772;2024-01-30T02:43:53;101233.75;;;4.08;100.00
6500;BME280;3283;52.330;9.772;2024-01-30T02:46:18;101227.78;;;4.12;100.00
6500;BME280;3283;52.330;9.772;2024-01-30T02:48:43;101225.16;;;4.12;100.00
6500;BME280;3283;52.330;9.772;2024-01-30T02:51:09;101220.03;;;4.15;100.00
6500;BME280;3283;52.330;9.772;2024-01-30T02:53:34;101212.31;;;4.20;100.00
6500;BME280;3283;52.330;9.772;2024-01-30T02:56:00;101212.44;;;4.24;100.00
6500;BME280;3283;52.330;9.772;2024-01-30T02:58:25;101215.91;;;4.25;100.00
6500;BME280;3283;52.330;9.772;2024-01-30T03:00:51;101209.53;;;4.12;100.00
6500;BME280;3283;52.330;9.772;2024-01-30T03:03:16;101207.00;;;4.15;100.00
6500;BME280;3283;52.330;9.772;2024-01-30T03:05:42;101210.56;;;4.19;100.00
6500;BME280;3283;52.330;9.772;2024-01-30T03:08:07;101213.94;;;4.14;100.00
6500;BME280;3283;52.330;9.772;2024-01-30T03:10:32;101210.41;;;4.11;100.00
6500;BME280;3283;52.330;9.772;2024-01-30T03:12:58;101209.34;;;4.03;100.00
6500;BME280;3283;52.330;9.772;2024-01-30T03:15:24;101205.75;;;3.98;100.00
6500;BME280;3283;52.330;9.772;2024-01-30T03:17:49;101200.41;;;3.93;100.00
6500;BME280;3283;52.330;9.772;2024-01-30T03:20:15;101196.09;;;3.94;100.00
6500;BME280;3283;52.330;9.772;2024-01-30T03:22:40;101191.66;;;3.90;100.00
6500;BME280;3283;52.330;9.772;2024-01-30T03:25:06;101185.44;;;3.83;100.00
6500;BME280;3283;52.330;9.772;2024-01-30T03:27:31;101189.78;;;3.84;100.00
6500;BME280;3283;52.330;9.772;2024-01-30T03:29:56;101189.69;;;3.79;100.00
6500;BME280;3283;52.330;9.772;2024-01-30T03:32:22;101189.69;;;3.79;100.00
6500;BME280;3283;52.330;9.772;2024-01-30T03:34:47;101198.34;;;3.78;100.00
6500;BME280;3283;52.330;9.772;2024-01-30T03:37:12;101201.22;;;3.89;100.00
6500;BME280;3283;52.330;9.772;2024-01-30T03:39:38;101197.06;;;3.97;100.00
6500;BME280;3283;52.330;9.772;2024-01-30T03:42:03;101190.88;;;3.94;100.00
6500;BME280;3283;52.330;9.772;2024-01-30T03:44:29;101191.72;;;3.93;100.00
6500;BME280;3283;52.330;9.772;2024-01-30T03:46:55;101189.28;;;4.00;100.00
6500;BME280;3283;52.330;9.772;2024-01-30T03:49:20;101186.47;;;3.90;100.00
6500;BME280;3283;52.330;9.772;2024-01-30T03:51:46;101183.69;;;3.82;100.00
6500;BME280;3283;52.330;9.772;2024-01-30T03:54:12;101181.00;;;3.79;100.00
6500;BME280;3283;52.330;9.772;2024-01-30T03:56:38;101191.19;;;3.70;100.00
6500;BME280;3283;52.330;9.772;2024-01-30T03:59:03;101185.16;;;3.72;100.00
6500;BME280;3283;52.330;9.772;2024-01-30T04:01:29;101186.91;;;3.73;100.00
6500;BME280;3283;52.330;9.772;2024-01-30T04:03:54;101187.75;;;3.71;100.00
6500;BME280;3283;52.330;9.772;2024-01-30T04:06:20;101187.91;;;3.77;100.00
6500;BME280;3283;52.330;9.772;2024-01-30T04:08:45;101180.97;;;3.77;100.00
6500;BME280;3283;52.330;9.772;2024-01-30T04:11:10;101174.03;;;3.78;100.00
6500;BME280;3283;52.330;9.772;2024-01-30T04:13:36;101180.09;;;3.77;100.00
6500;BME280;3283;52.330;9.772;2024-01-30T04:16:02;101172.25;;;3.75;100.00
6500;BME280;3283;52.330;9.772;2024-01-30T04:18:28;101161.84;;;3.75;100.00
6500;BME280;3283;52.330;9.772;2024-01-30T04:20:53;101170.50;;;3.74;100.00
6500;BME280;3283;52.330;9.772;2024-01-30T04:23:19;101177.34;;;3.72;100.00
6500;BME280;3283;52.330;9.772;2024-01-30T04:25:44;101173.88;;;3.72;100.00
6500;BME280;3283;52.330;9.772;2024-01-30T04:28:10;101177.34;;;3.72;100.00
6500;BME280;3283;52.330;9.772;2024-01-30T04:30:37;101175.56;;;3.70;100.00
6500;BME280;3283;52.330;9.772;2024-01-30T04:33:03;101178.19;;;3.70;100.00
6500;BME280;3283;52.330;9.772;2024-01-30T04:35:28;101175.53;;;3.67;100.00
6500;BME280;3283;52.330;9.772;2024-01-30T04:37:54;101177.19;;;3.65;100.00
6500;BME280;3283;52.330;9.772;2024-01-30T04:40:22;101181.59;;;3.67;100.00
6500;BME280;3283;52.330;9.772;2024-01-30T04:42:48;101179.72;;;3.62;100.00
6500;BME280;3283;52.330;9.772;2024-01-30T04:45:13;101175.41;;;3.62;100.00
6500;BME280;3283;52.330;9.772;2024-01-30T04:47:38;101174.38;;;3.55;100.00
6500;BME280;3283;52.330;9.772;2024-01-30T04:50:07;101180.41;;;3.54;100.00
6500;BME280;3283;52.330;9.772;2024-01-30T04:52:34;101179.50;;;3.52;100.00
6500;BME280;3283;52.330;9.772;2024-01-30T04:55:00;101174.03;;;3.42;100.00
6500;BME280;3283;52.330;9.772;2024-01-30T04:57:25;101174.72;;;3.35;100.00
6500;BME280;3283;52.330;9.772;2024-01-30T04:59:51;101172.03;;;3.32;100.00
6500;BME280;3283;52.330;9.772;2024-01-30T05:02:16;101165.88;;;3.28;100.00
6500;BME280;3283;52.330;9.772;2024-01-30T05:04:42;101158.78;;;3.22;100.00
6500;BME280;3283;52.330;9.772;2024-01-30T05:07:08;101170.06;;;3.23;100.00
6500;BME280;3283;52.330;9.772;2024-01-30T05:09:33;101167.63;;;3.29;100.00
6500;BME280;3283;52.330;9.772;2024-01-30T05:11:58;101163.06;;;3.20;100.00
6500;BME280;3283;52.330;9.772;2024-01-30T05:14:24;101164.09;;;3.25;100.00
6500;BME280;3283;52.330;9.772;2024-01-30T05:16:49;101167.44;;;3.21;100.00
6500;BME280;3283;52.330;9.772;2024-01-30T05:19:15;101172.72;;;3.24;100.00
6500;BME280;3283;52.330;9.772;2024-01-30T05:21:41;101169.28;;;3.25;100.00
6500;BME280;3283;52.330;9.772;2024-01-30T05:24:07;101164.88;;;3.23;100.00
6500;BME280;3283;52.330;9.772;2024-01-30T05:26:32;101174.34;;;3.21;100.00
6500;BME280;3283;52.330;9.772;2024-01-30T05:28:58;101169.00;;;3.15;100.00
6500;BME280;3283;52.330;9.772;2024-01-30T05:31:23;101167.09;;;3.09;100.00
6500;BME280;3283;52.330;9.772;2024-01-30T05:33:51;101171.50;;;3.10;100.00
6500;BME280;3283;52.330;9.772;2024-01-30T05:36:16;101170.75;;;3.16;100.00
6500;BME280;3283;52.330;9.772;2024-01-30T05:38:42;101169.97;;;3.18;100.00
6500;BME280;3283;52.330;9.772;2024-01-30T05:41:08;101175.09;;;3.17;100.00
6500;BME280;3283;52.330;9.772;2024-01-30T05:43:33;101174.72;;;3.01;100.00
6500;BME280;3283;52.330;9.772;2024-01-30T05:45:59;101165.69;;;3.20;100.00
6500;BME280;3283;52.330;9.772;2024-01-30T05:48:25;101170.34;;;3.34;100.00
6500;BME280;3283;52.330;9.772;2024-01-30T05:50:50;101174.94;;;3.44;100.00
6500;BME280;3283;52.330;9.772;2024-01-30T05:53:15;101177.84;;;3.56;100.00
6500;BME280;3283;52.330;9.772;2024-01-30T05:55:41;101168.34;;;3.58;100.00
6500;BME280;3283;52.330;9.772;2024-01-30T05:58:06;101172.00;;;3.66;100.00
6500;BME280;3283;52.330;9.772;2024-01-30T06:00:31;101173.72;;;3.66;100.00
6500;BME280;3283;52.330;9.772;2024-01-30T06:02:57;101175.38;;;3.61;100.00
6500;BME280;3283;52.330;9.772;2024-01-30T06:05:22;101177.97;;;3.61;100.00
6500;BME280;3283;52.330;9.772;2024-01-30T06:07:48;101171.38;;;3.75;100.00
6500;BME280;3283;52.330;9.772;2024-01-30T06:10:14;101168.34;;;3.58;100.00
6500;BME280;3283;52.330;9.772;2024-01-30T06:12:39;101179.91;;;3.69;100.00
6500;BME280;3283;52.330;9.772;2024-01-30T06:15:05;101169.41;;;3.66;100.00
6500;BME280;3283;52.330;9.772;2024-01-30T06:17:32;101168.34;;;3.58;100.00
6500;BME280;3283;52.330;9.772;2024-01-30T06:19:57;101166.78;;;3.65;100.00
6500;BME280;3283;52.330;9.772;2024-01-30T06:22:22;101168.34;;;3.58;100.00
6500;BME280;3283;52.330;9.772;2024-01-30T06:24:48;101163.13;;;3.58;100.00
6500;BME280;3283;52.330;9.772;2024-01-30T06:27:14;101161.31;;;3.54;100.00
6500;BME280;3283;52.330;9.772;2024-01-30T06:29:40;101155.19;;;3.52;100.00
6500;BME280;3283;52.330;9.772;2024-01-30T06:32:06;101151.69;;;3.51;100.00
6500;BME280;3283;52.330;9.772;2024-01-30T06:34:31;101156.28;;;3.60;100.00
6500;BME280;3283;52.330;9.772;2024-01-30T06:36:57;101154.56;;;3.62;100.00
6500;BME280;3283;52.330;9.772;2024-01-30T06:39:22;101142.41;;;3.61;100.00
6500;BME280;3283;52.330;9.772;2024-01-30T06:41:48;101144.97;;;3.60;100.00
6500;BME280;3283;52.330;9.772;2024-01-30T06:44:14;101144.00;;;3.56;100.00
6500;BME280;3283;52.330;9.772;2024-01-30T06:46:40;101137.13;;;3.58;100.00
6500;BME280;3283;52.330;9.772;2024-01-30T06:49:05;101141.34;;;3.53;100.00
6500;BME280;3283;52.330;9.772;2024-01-30T06:51:31;101145.47;;;3.45;100.00
6500;BME280;3283;52.330;9.772;2024-01-30T06:53:56;101138.44;;;3.41;100.00
6500;BME280;3283;52.330;9.772;2024-01-30T06:56:21;101147.19;;;3.44;100.00
6500;BME280;3283;52.330;9.772;2024-01-30T06:58:48;101137.72;;;3.46;100.00
6500;BME280;3283;52.330;9.772;2024-01-30T07:01:14;101145.72;;;3.54;100.00
6500;BME280;3283;52.330;9.772;2024-01-30T07:03:40;101143.97;;;3.54;100.00
6500;BME280;3283;52.330;9.772;2024-01-30T07:06:05;101148.19;;;3.49;100.00
6500;BME280;3283;52.330;9.772;2024-01-30T07:08:31;101150.97;;;3.57;100.00
6500;BME280;3283;52.330;9.772;2024-01-30T07:10:56;101138.81;;;3.56;100.00
6500;BME280;3283;52.330;9.772;2024-01-30T07:13:22;101146.66;;;3.57;100.00
6500;BME280;3283;52.330;9.772;2024-01-30T07:15:47;101146.69;;;3.59;100.00
6500;BME280;3283;52.330;9.772;2024-01-30T07:18:13;101141.44;;;3.57;100.00
6500;BME280;3283;52.330;9.772;2024-01-30T07:20:39;101148.41;;;3.58;100.00
6500;BME280;3283;52.330;9.772;2024-01-30T07:23:15;101145.88;;;3.60;100.00
6500;BME280;3283;52.330;9.772;2024-01-30T07:25:43;101149.34;;;3.61;100.00
6500;BME280;3283;52.330;9.772;2024-01-30T07:28:09;101145.88;;;3.62;100.00
6500;BME280;3283;52.330;9.772;2024-01-30T07:30:42;101154.63;;;3.65;100.00
6500;BME280;3283;52.330;9.772;2024-01-30T07:33:08;101156.31;;;3.63;100.00
6500;BME280;3283;52.330;9.772;2024-01-30T07:35:34;101147.81;;;3.70;100.00
6500;BME280;3283;52.330;9.772;2024-01-30T07:37:59;101147.97;;;3.76;100.00
6500;BME280;3283;52.330;9.772;2024-01-30T07:40:25;101153.28;;;3.81;100.00
6500;BME280;3283;52.330;9.772;2024-01-30T07:42:50;101155.94;;;3.82;100.00
6500;BME280;3283;52.330;9.772;2024-01-30T07:45:16;101151.69;;;3.88;100.00
6500;BME280;3283;52.330;9.772;2024-01-30T07:47:42;101150.31;;;4.03;100.00
6500;BME280;3283;52.330;9.772;2024-01-30T07:50:10;101149.53;;;4.07;100.00
6500;BME280;3283;52.330;9.772;2024-01-30T07:52:35;101147.97;;;4.16;100.00
6500;BME280;3283;52.330;9.772;2024-01-30T07:55:02;101152.44;;;4.23;100.00
6500;BME280;3283;52.330;9.772;2024-01-30T07:57:29;101152.66;;;4.30;100.00
6500;BME280;3283;52.330;9.772;2024-01-30T07:59:54;101157.88;;;4.32;100.00
6500;BME280;3283;52.330;9.772;2024-01-30T08:02:19;101152.81;;;4.39;100.00
6500;BME280;3283;52.330;9.772;2024-01-30T08:04:45;101145.91;;;4.41;100.00
6500;BME280;3283;52.330;9.772;2024-01-30T08:07:14;101142.53;;;4.46;100.00
6500;BME280;3283;52.330;9.772;2024-01-30T08:09:39;101149.56;;;4.50;100.00
6500;BME280;3283;52.330;9.772;2024-01-30T08:12:04;101153.09;;;4.52;100.00
6500;BME280;3283;52.330;9.772;2024-01-30T08:14:30;101144.53;;;4.59;100.00
6500;BME280;3283;52.330;9.772;2024-01-30T08:16:55;101139.34;;;4.59;100.00
6500;BME280;3283;52.330;9.772;2024-01-30T08:19:20;101136.00;;;4.66;100.00
6500;BME280;3283;52.330;9.772;2024-01-30T08:21:46;101132.38;;;4.59;100.00
6500;BME280;3283;52.330;9.772;2024-01-30T08:24:11;101130.81;;;4.69;100.00
6500;BME280;3283;52.330;9.772;2024-01-30T08:26:40;101124.75;;;4.70;100.00
6500;BME280;3283;52.330;9.772;2024-01-30T08:29:05;101132.66;;;4.73;100.00
6500;BME280;3283;52.330;9.772;2024-01-30T08:31:30;101116.34;;;4.85;100.00
6500;BME280;3283;52.330;9.772;2024-01-30T08:33:56;101130.34;;;4.90;100.00
6500;BME280;3283;52.330;9.772;2024-01-30T08:36:21;101130.38;;;4.91;100.00
6500;BME280;3283;52.330;9.772;2024-01-30T08:38:46;101129.69;;;5.02;100.00
6500;BME280;3283;52.330;9.772;2024-01-30T08:41:12;101132.31;;;5.02;100.00
6500;BME280;3283;52.330;9.772;2024-01-30T08:43:37;101134.31;;;5.18;100.00
6500;BME280;3283;52.330;9.772;2024-01-30T08:46:03;101135.19;;;5.17;100.00
6500;BME280;3283;52.330;9.772;2024-01-30T08:48:29;101138.66;;;5.17;100.00
6500;BME280;3283;52.330;9.772;2024-01-30T08:50:54;101141.56;;;5.34;100.00
6500;BME280;3283;52.330;9.772;2024-01-30T08:53:19;101144.13;;;5.31;100.00
6500;BME280;3283;52.330;9.772;2024-01-30T08:55:45;101139.75;;;5.29;100.00
6500;BME280;3283;52.330;9.772;2024-01-30T08:58:10;101132.06;;;5.38;100.00
6500;BME280;3283;52.330;9.772;2024-01-30T09:00:36;101142.56;;;5.42;100.00
6500;BME280;3283;52.330;9.772;2024-01-30T09:03:01;101127.84;;;5.46;100.00
6500;BME280;3283;52.330;9.772;2024-01-30T09:05:27;101133.19;;;5.55;100.00
6500;BME280;3283;52.330;9.772;2024-01-30T09:07:53;101130.75;;;5.66;100.00
6500;BME280;3283;52.330;9.772;2024-01-30T09:10:19;101131.63;;;5.66;100.00
6500;BME280;3283;52.330;9.772;2024-01-30T09:12:44;101128.13;;;5.64;100.00
6500;BME280;3283;52.330;9.772;2024-01-30T09:15:09;101127.41;;;5.76;100.00
6500;BME280;3283;52.330;9.772;2024-01-30T09:17:35;101127.50;;;5.82;100.00
6500;BME280;3283;52.330;9.772;2024-01-30T09:20:01;101126.53;;;5.75;100.00
6500;BME280;3283;52.330;9.772;2024-01-30T09:22:26;101125.66;;;5.73;100.00
6500;BME280;3283;52.330;9.772;2024-01-30T09:24:52;101125.78;;;5.84;100.00
6500;BME280;3283;52.330;9.772;2024-01-30T09:27:17;101118.00;;;5.86;100.00
6500;BME280;3283;52.330;9.772;2024-01-30T09:29:42;101119.75;;;5.87;100.00
6500;BME280;3283;52.330;9.772;2024-01-30T09:32:08;101112.06;;;5.94;100.00
6500;BME280;3283;52.330;9.772;2024-01-30T09:34:34;101119.09;;;6.00;100.00
6500;BME280;3283;52.330;9.772;2024-01-30T09:37:00;101120.09;;;6.08;100.00
6500;BME280;3283;52.330;9.772;2024-01-30T09:39:26;101114.06;;;6.14;100.00
6500;BME280;3283;52.330;9.772;2024-01-30T09:44:43;101114.25;;;6.27;100.00
6500;BME280;3283;52.330;9.772;2024-01-30T09:47:09;101113.59;;;6.47;100.00
6500;BME280;3283;52.330;9.772;2024-01-30T09:49:35;101118.00;;;6.52;100.00
6500;BME280;3283;52.330;9.772;2024-01-30T09:52:02;101125.00;;;6.53;100.00
6500;BME280;3283;52.330;9.772;2024-01-30T09:54:32;101130.41;;;6.69;100.00
6500;BME280;3283;52.330;9.772;2024-01-30T09:56:58;101126.75;;;6.54;100.00
6500;BME280;3283;52.330;9.772;2024-01-30T09:59:24;101117.38;;;6.72;100.00
6500;BME280;3283;52.330;9.772;2024-01-30T10:01:50;101126.09;;;6.71;100.00
6500;BME280;3283;52.330;9.772;2024-01-30T10:04:16;101121.75;;;6.76;100.00
6500;BME280;3283;52.330;9.772;2024-01-30T10:06:42;101121.00;;;6.86;100.00
6500;BME280;3283;52.330;9.772;2024-01-30T10:09:07;101127.16;;;6.91;100.00
6500;BME280;3283;52.330;9.772;2024-01-30T10:11:34;101114.13;;;6.96;100.00
6500;BME280;3283;52.330;9.772;2024-01-30T10:14:00;101114.09;;;6.94;100.00
6500;BME280;3283;52.330;9.772;2024-01-30T10:16:26;101112.41;;;6.99;100.00
6500;BME280;3283;52.330;9.772;2024-01-30T10:18:52;101113.34;;;7.06;100.00
6500;BME280;3283;52.330;9.772;2024-01-30T10:21:17;101114.22;;;7.06;100.00
6500;BME280;3283;52.330;9.772;2024-01-30T10:23:43;101114.19;;;7.03;100.00
6500;BME280;3283;52.330;9.772;2024-01-30T10:26:09;101110.75;;;7.06;100.00
6500;BME280;3283;52.330;9.772;2024-01-30T10:28:35;101102.03;;;7.11;100.00
6500;BME280;3283;52.330;9.772;2024-01-30T10:31:00;101103.00;;;7.20;100.00
6500;BME280;3283;52.330;9.772;2024-01-30T10:33:26;101098.59;;;7.14;100.00
6500;BME280;3283;52.330;9.772;2024-01-30T10:35:56;101094.28;;;7.21;100.00
6500;BME280;3283;52.330;9.772;2024-01-30T10:38:28;101101.38;;;7.35;100.00
6500;BME280;3283;52.330;9.772;2024-01-30T10:40:56;101090.97;;;7.41;100.00
6500;BME280;3283;52.330;9.772;2024-01-30T10:43:22;101093.53;;;7.37;100.00
6500;BME280;3283;52.330;9.772;2024-01-30T10:45:49;101094.56;;;7.60;100.00
6500;BME280;3283;52.330;9.772;2024-01-30T10:48:18;101087.63;;;7.65;100.00
6500;BME280;3283;52.330;9.772;2024-01-30T10:50:47;101088.50;;;7.66;100.00
6500;BME280;3283;52.330;9.772;2024-01-30T10:53:14;101085.06;;;7.70;100.00
6500;BME280;3283;52.330;9.772;2024-01-30T10:55:42;101091.13;;;7.67;100.00
6500;BME280;3283;52.330;9.772;2024-01-30T10:58:08;101092.03;;;7.74;100.00
6500;BME280;3283;52.330;9.772;2024-01-30T11:00:36;101096.41;;;7.74;100.00
6500;BME280;3283;52.330;9.772;2024-01-30T11:03:04;101093.75;;;7.63;100.00
6500;BME280;3283;52.330;9.772;2024-01-30T11:05:30;101100.72;;;7.65;100.00
6500;BME280;3283;52.330;9.772;2024-01-30T11:07:55;101091.16;;;7.74;100.00
6500;BME280;3283;52.330;9.772;2024-01-30T11:10:24;101093.78;;;7.72;100.00
6500;BME280;3283;52.330;9.772;2024-01-30T11:12:50;101092.09;;;7.77;100.00
6500;BME280;3283;52.330;9.772;2024-01-30T11:15:16;101094.72;;;7.82;100.00
6500;BME280;3283;52.330;9.772;2024-01-30T11:17:43;101090.41;;;7.94;100.00
6500;BME280;3283;52.330;9.772;2024-01-30T11:20:14;101078.16;;;7.84;100.00
6500;BME280;3283;52.330;9.772;2024-01-30T11:22:51;101075.44;;;7.74;100.00
6500;BME280;3283;52.330;9.772;2024-01-30T11:25:19;101069.34;;;7.73;100.00
6500;BME280;3283;52.330;9.772;2024-01-30T11:27:45;101071.13;;;7.77;100.00
6500;BME280;3283;52.330;9.772;2024-01-30T11:30:30;101079.03;;;7.88;100.00
6500;BME280;3283;52.330;9.772;2024-01-30T11:35:41;101075.59;;;8.01;100.00
6500;BME280;3283;52.330;9.772;2024-01-30T11:38:08;101074.72;;;8.02;100.00
6500;BME280;3283;52.330;9.772;2024-01-30T11:40:34;101066.91;;;8.07;100.00
6500;BME280;3283;52.330;9.772;2024-01-30T11:43:01;101058.25;;;8.26;100.00
6500;BME280;3283;52.330;9.772;2024-01-30T11:45:27;101050.47;;;8.46;100.00
6500;BME280;3283;52.330;9.772;2024-01-30T11:47:53;101047.88;;;8.58;100.00
6500;BME280;3283;52.330;9.772;2024-01-30T11:50:18;101047.91;;;8.70;100.00
6500;BME280;3283;52.330;9.772;2024-01-30T11:52:44;101046.16;;;8.69;100.00
6500;BME280;3283;52.330;9.772;2024-01-30T11:55:10;101041.78;;;8.71;100.00
6500;BME280;3283;52.330;9.772;2024-01-30T11:57:35;101040.94;;;8.82;100.00
6500;BME280;3283;52.330;9.772;2024-01-30T12:00:05;101033.91;;;8.87;100.00
6500;BME280;3283;52.330;9.772;2024-01-30T12:02:39;101028.69;;;8.96;100.00
6500;BME280;3283;52.330;9.772;2024-01-30T12:05:05;101018.16;;;9.08;100.00
6500;BME280;3283;52.330;9.772;2024-01-30T12:07:31;101019.03;;;9.27;100.00
6500;BME280;3283;52.330;9.772;2024-01-30T12:09:57;101013.78;;;9.07;100.00
6500;BME280;3283;52.330;9.772;2024-01-30T12:12:24;101013.78;;;9.12;100.00
6500;BME280;3283;52.330;9.772;2024-01-30T12:14:50;101012.03;;;9.07;100.00
6500;BME280;3283;52.330;9.772;2024-01-30T12:22:40;101020.78;;;9.19;100.00
6500;BME280;3283;52.330;9.772;2024-01-30T12:25:21;101021.66;;;9.33;100.00
6500;BME280;3283;52.330;9.772;2024-01-30T12:27:49;101046.16;;;9.33;100.00
6500;BME280;3283;52.330;9.772;2024-01-30T12:30:15;101042.66;;;9.28;100.00
6500;BME280;3283;52.330;9.772;2024-01-30T12:32:42;101044.44;;;9.05;100.00
6500;BME280;3283;52.330;9.772;2024-01-30T12:35:18;101045.31;;;8.98;100.00
6500;BME280;3283;52.330;9.772;2024-01-30T12:37:45;101042.66;;;8.87;100.00
6500;BME280;3283;52.330;9.772;2024-01-30T12:40:13;101044.41;;;8.80;100.00
6500;BME280;3283;52.330;9.772;2024-01-30T12:42:45;101053.19;;;8.98;100.00
6500;BME280;3283;52.330;9.772;2024-01-30T12:45:14;101051.41;;;8.92;100.00
6500;BME280;3283;52.330;9.772;2024-01-30T12:47:41;101041.81;;;9.03;100.00
6500;BME280;3283;52.330;9.772;2024-01-30T12:50:06;101030.41;;;9.00;100.00
6500;BME280;3283;52.330;9.772;2024-01-30T12:52:32;101047.94;;;9.10;100.00
6500;BME280;3283;52.330;9.772;2024-01-30T12:54:58;101043.56;;;9.11;100.00
6500;BME280;3283;52.330;9.772;2024-01-30T12:57:23;101047.94;;;9.04;100.00
6500;BME280;3283;52.330;9.772;2024-01-30T12:59:48;101053.16;;;9.22;100.00
6500;BME280;3283;52.330;9.772;2024-01-30T13:02:14;101051.41;;;9.27;100.00
6500;BME280;3283;52.330;9.772;2024-01-30T13:04:40;101049.66;;;9.29;100.00
6500;BME280;3283;52.330;9.772;2024-01-30T13:07:05;101049.66;;;9.35;100.00
6500;BME280;3283;52.330;9.772;2024-01-30T13:09:31;101054.00;;;9.55;100.00
6500;BME280;3283;52.330;9.772;2024-01-30T13:11:57;101052.22;;;9.71;100.00
6500;BME280;3283;52.330;9.772;2024-01-30T13:14:23;101047.81;;;9.77;100.00